sensor_id;sensor_type;location;lat;lon;timestamp;pressure;altitude;pressure_sealevel;temperature;humidity
76940;BME280;65885;55.848;35.916;2023-09-30T00:01:27;99684.94;;;8.93;65.71
76940;BME280;65885;55.848;35.916;2023-09-30T00:03:54;99685.81;;;8.92;65.78
76940;BME280;65885;55.848;35.916;2023-09-30T00:06:23;99684.97;;;8.91;65.98
76940;BME280;65885;55.848;35.916;2023-09-30T00:08:50;99686.72;;;8.90;66.64
76940;BME280;65885;55.848;35.916;2023-09-30T00:11:18;99680.69;;;8.88;66.28
76940;BME280;65885;55.848;35.916;2023-09-30T00:13:45;99681.56;;;8.89;66.91
76940;BME280;65885;55.848;35.916;2023-09-30T00:16:15;99678.09;;;8.88;66.84
76940;BME280;65885;55.848;35.916;2023-09-30T00:18:43;99681.59;;;8.87;66.82
76940;BME280;65885;55.848;35.916;2023-09-30T00:21:11;99673.75;;;8.87;66.51
76940;BME280;65885;55.848;35.916;2023-09-30T00:23:40;99680.75;;;8.87;66.16
76940;BME280;65885;55.848;35.916;2023-09-30T00:26:07;99689.50;;;8.86;66.04
76940;BME280;65885;55.848;35.916;2023-09-30T00:28:34;99678.22;;;8.84;64.64
76940;BME280;65885;55.848;35.916;2023-09-30T00:31:06;99674.72;;;8.85;64.59
76940;BME280;65885;55.848;35.916;2023-09-30T00:33:36;99670.38;;;8.84;65.26
76940;BME280;65885;55.848;35.916;2023-09-30T00:36:08;99675.66;;;8.82;65.50
76940;BME280;65885;55.848;35.916;2023-09-30T00:38:35;99669.63;;;8.80;65.56
76940;BME280;65885;55.848;35.916;2023-09-30T00:41:04;99675.81;;;8.78;65.99
76940;BME280;65885;55.848;35.916;2023-09-30T00:43:32;99666.28;;;8.75;65.78
76940;BME280;65885;55.848;35.916;2023-09-30T00:46:04;99670.72;;;8.73;66.14
76940;BME280;65885;55.848;35.916;2023-09-30T00:48:33;99663.81;;;8.71;66.50
76940;BME280;65885;55.848;35.916;2023-09-30T00:51:00;99663.00;;;8.69;64.86
76940;BME280;65885;55.848;35.916;2023-09-30T00:53:29;99662.13;;;8.68;65.27
76940;BME280;65885;55.848;35.916;2023-09-30T00:55:57;99656.97;;;8.67;66.21
76940;BME280;65885;55.848;35.916;2023-09-30T00:58:27;99665.72;;;8.66;65.73
76940;BME280;65885;55.848;35.916;2023-09-30T01:00:57;99659.63;;;8.65;66.05
76940;BME280;65885;55.848;35.916;2023-09-30T01:03:25;99653.59;;;8.63;66.27
76940;BME280;65885;55.848;35.916;2023-09-30T01:05:53;99658.00;;;8.61;65.85
76940;BME280;65885;55.848;35.916;2023-09-30T01:08:21;99653.72;;;8.58;65.01
76940;BME280;65885;55.848;35.916;2023-09-30T01:10:49;99650.25;;;8.58;64.94
76940;BME280;65885;55.848;35.916;2023-09-30T01:13:17;99656.38;;;8.57;65.09
76940;BME280;65885;55.848;35.916;2023-09-30T01:15:45;99651.25;;;8.54;64.22
76940;BME280;65885;55.848;35.916;2023-09-30T01:18:13;99658.28;;;8.52;63.16
76940;BME280;65885;55.848;35.916;2023-09-30T01:20:41;99660.94;;;8.50;62.97
76940;BME280;65885;55.848;35.916;2023-09-30T01:23:10;99666.28;;;8.47;62.83
76940;BME280;65885;55.848;35.916;2023-09-30T01:25:38;99657.66;;;8.44;62.82
76940;BME280;65885;55.848;35.916;2023-09-30T01:28:08;99656.91;;;8.39;62.75
76940;BME280;65885;55.848;35.916;2023-09-30T01:30:36;99652.63;;;8.36;63.55
76940;BME280;65885;55.848;35.916;2023-09-30T01:33:04;99652.75;;;8.31;63.96
76940;BME280;65885;55.848;35.916;2023-09-30T01:35:33;99643.34;;;8.26;63.68
76940;BME280;65885;55.848;35.916;2023-09-30T01:38:01;99645.16;;;8.24;64.40
76940;BME280;65885;55.848;35.916;2023-09-30T01:40:29;99639.09;;;8.22;64.56
76940;BME280;65885;55.848;35.916;2023-09-30T01:42:57;99644.41;;;8.19;64.59
76940;BME280;65885;55.848;35.916;2023-09-30T01:45:25;99637.53;;;8.16;65.11
76940;BME280;65885;55.848;35.916;2023-09-30T01:47:52;99638.41;;;8.15;64.96
76940;BME280;65885;55.848;35.916;2023-09-30T01:50:19;99634.97;;;8.13;65.40
76940;BME280;65885;55.848;35.916;2023-09-30T01:52:47;99640.31;;;8.10;65.02
76940;BME280;65885;55.848;35.916;2023-09-30T01:55:14;99632.53;;;8.09;65.62
76940;BME280;65885;55.848;35.916;2023-09-30T01:57:43;99633.38;;;8.07;65.66
76940;BME280;65885;55.848;35.916;2023-09-30T02:00:11;99641.28;;;8.06;65.63
76940;BME280;65885;55.848;35.916;2023-09-30T02:02:38;99635.19;;;8.05;65.96
76940;BME280;65885;55.848;35.916;2023-09-30T02:05:05;99636.09;;;8.04;65.70
76940;BME280;65885;55.848;35.916;2023-09-30T02:07:34;99633.53;;;8.03;66.24
76940;BME280;65885;55.848;35.916;2023-09-30T02:10:01;99631.81;;;8.02;65.76
76940;BME280;65885;55.848;35.916;2023-09-30T02:12:34;99630.09;;;8.01;66.45
76940;BME280;65885;55.848;35.916;2023-09-30T02:15:06;99628.38;;;8.00;65.94
76940;BME280;65885;55.848;35.916;2023-09-30T02:17:37;99631.03;;;7.98;64.84
76940;BME280;65885;55.848;35.916;2023-09-30T02:20:06;99631.09;;;7.97;64.95
76940;BME280;65885;55.848;35.916;2023-09-30T02:22:58;99624.16;;;7.96;64.78
76940;BME280;65885;55.848;35.916;2023-09-30T02:25:28;99628.53;;;7.95;65.06
76940;BME280;65885;55.848;35.916;2023-09-30T02:43:33;99622.81;;;7.81;65.43
76940;BME280;65885;55.848;35.916;2023-09-30T02:46:01;99619.41;;;7.79;65.36
76940;BME280;65885;55.848;35.916;2023-09-30T02:48:29;99619.44;;;7.77;65.28
76940;BME280;65885;55.848;35.916;2023-09-30T02:50:57;99608.13;;;7.77;65.39
76940;BME280;65885;55.848;35.916;2023-09-30T02:53:24;99615.97;;;7.77;65.45
76940;BME280;65885;55.848;35.916;2023-09-30T02:55:52;99610.78;;;7.75;65.18
76940;BME280;65885;55.848;35.916;2023-09-30T02:58:22;99619.47;;;7.76;65.71
76940;BME280;65885;55.848;35.916;2023-09-30T03:00:51;99604.66;;;7.76;65.47
76940;BME280;65885;55.848;35.916;2023-09-30T03:03:19;99605.56;;;7.75;64.96
76940;BME280;65885;55.848;35.916;2023-09-30T03:05:47;99608.19;;;7.75;65.19
76940;BME280;65885;55.848;35.916;2023-09-30T03:08:15;99596.88;;;7.75;65.14
76940;BME280;65885;55.848;35.916;2023-09-30T03:10:44;99606.47;;;7.74;65.93
76940;BME280;65885;55.848;35.916;2023-09-30T03:13:12;99603.00;;;7.74;65.83
76940;BME280;65885;55.848;35.916;2023-09-30T03:15:39;99602.16;;;7.73;65.86
76940;BME280;65885;55.848;35.916;2023-09-30T03:18:08;99602.19;;;7.72;65.30
76940;BME280;65885;55.848;35.916;2023-09-30T03:20:35;99606.56;;;7.71;65.07
76940;BME280;65885;55.848;35.916;2023-09-30T03:23:06;99602.19;;;7.72;65.87
76940;BME280;65885;55.848;35.916;2023-09-30T03:25:34;99600.50;;;7.71;66.04
76940;BME280;65885;55.848;35.916;2023-09-30T03:28:02;99598.75;;;7.70;65.75
76940;BME280;65885;55.848;35.916;2023-09-30T03:30:32;99603.97;;;7.70;65.65
76940;BME280;65885;55.848;35.916;2023-09-30T03:32:59;99596.13;;;7.70;65.63
76940;BME280;65885;55.848;35.916;2023-09-30T03:35:29;99599.59;;;7.70;65.85
76940;BME280;65885;55.848;35.916;2023-09-30T03:37:56;99597.03;;;7.69;65.14
76940;BME280;65885;55.848;35.916;2023-09-30T03:40:24;99595.28;;;7.69;64.71
76940;BME280;65885;55.848;35.916;2023-09-30T03:42:55;99593.53;;;7.70;65.14
76940;BME280;65885;55.848;35.916;2023-09-30T03:45:22;99589.16;;;7.70;65.75
76940;BME280;65885;55.848;35.916;2023-09-30T03:47:49;99583.94;;;7.70;65.70
76940;BME280;65885;55.848;35.916;2023-09-30T03:50:17;99578.72;;;7.72;65.92
76940;BME280;65885;55.848;35.916;2023-09-30T03:52:46;99583.94;;;7.72;65.50
76940;BME280;65885;55.848;35.916;2023-09-30T03:55:14;99588.25;;;7.73;66.03
76940;BME280;65885;55.848;35.916;2023-09-30T03:57:41;99587.28;;;7.75;66.16
76940;BME280;65885;55.848;35.916;2023-09-30T04:00:09;99588.16;;;7.76;65.98
76940;BME280;65885;55.848;35.916;2023-09-30T04:02:42;99582.88;;;7.77;66.63
76940;BME280;65885;55.848;35.916;2023-09-30T04:05:10;99585.41;;;7.81;66.72
76940;BME280;65885;55.848;35.916;2023-09-30T04:07:40;99590.53;;;7.84;66.87
76940;BME280;65885;55.848;35.916;2023-09-30T04:10:10;99587.00;;;7.86;67.65
76940;BME280;65885;55.848;35.916;2023-09-30T04:12:37;99590.38;;;7.90;66.95
76940;BME280;65885;55.848;35.916;2023-09-30T04:15:12;99587.59;;;7.96;67.75
76940;BME280;65885;55.848;35.916;2023-09-30T04:17:40;99583.19;;;7.98;67.72
76940;BME280;65885;55.848;35.916;2023-09-30T04:20:08;99584.78;;;8.03;67.22
76940;BME280;65885;55.848;35.916;2023-09-30T04:22:42;99588.97;;;8.09;67.42
76940;BME280;65885;55.848;35.916;2023-09-30T04:25:13;99588.75;;;8.15;68.76
76940;BME280;65885;55.848;35.916;2023-09-30T04:27:42;99590.34;;;8.21;68.60
76940;BME280;65885;55.848;35.916;2023-09-30T04:30:13;99577.16;;;8.25;69.01
76940;BME280;65885;55.848;35.916;2023-09-30T04:32:41;99584.78;;;8.33;70.24
76940;BME280;65885;55.848;35.916;2023-09-30T04:35:09;99583.75;;;8.39;70.26
76940;BME280;65885;55.848;35.916;2023-09-30T04:37:37;99583.56;;;8.45;70.40
76940;BME280;65885;55.848;35.916;2023-09-30T04:40:06;99581.66;;;8.50;68.96
76940;BME280;65885;55.848;35.916;2023-09-30T04:42:42;99585.75;;;8.58;68.87
76940;BME280;65885;55.848;35.916;2023-09-30T04:45:11;99577.66;;;8.66;68.87
76940;BME280;65885;55.848;35.916;2023-09-30T04:47:38;99575.72;;;8.73;67.86
76940;BME280;65885;55.848;35.916;2023-09-30T04:50:07;99573.78;;;8.79;67.16
76940;BME280;65885;55.848;35.916;2023-09-30T04:52:34;99576.13;;;8.87;67.32
76940;BME280;65885;55.848;35.916;2023-09-30T04:55:03;99572.41;;;8.94;66.82
76940;BME280;65885;55.848;35.916;2023-09-30T04:57:30;99574.78;;;9.02;67.63
76940;BME280;65885;55.848;35.916;2023-09-30T05:00:00;99575.44;;;9.08;68.03
76940;BME280;65885;55.848;35.916;2023-09-30T05:02:28;99576.09;;;9.15;68.40
76940;BME280;65885;55.848;35.916;2023-09-30T05:04:55;99576.78;;;9.20;68.06
76940;BME280;65885;55.848;35.916;2023-09-30T05:07:23;99571.28;;;9.28;67.86
76940;BME280;65885;55.848;35.916;2023-09-30T05:09:50;99569.22;;;9.37;68.56
76940;BME280;65885;55.848;35.916;2023-09-30T05:12:19;99569.00;;;9.43;68.73
76940;BME280;65885;55.848;35.916;2023-09-30T05:14:47;99571.31;;;9.53;68.76
76940;BME280;65885;55.848;35.916;2023-09-30T05:17:15;99562.22;;;9.63;69.83
76940;BME280;65885;55.848;35.916;2023-09-30T05:19:43;99562.78;;;9.71;70.47
76940;BME280;65885;55.848;35.916;2023-09-30T05:22:10;99566.84;;;9.80;69.75
76940;BME280;65885;55.848;35.916;2023-09-30T05:24:38;99558.63;;;9.89;70.05
76940;BME280;65885;55.848;35.916;2023-09-30T05:27:05;99557.47;;;9.97;69.76
76940;BME280;65885;55.848;35.916;2023-09-30T05:29:32;99563.16;;;10.09;69.59
76940;BME280;65885;55.848;35.916;2023-09-30T05:32:00;99561.88;;;10.19;69.45
76940;BME280;65885;55.848;35.916;2023-09-30T05:34:30;99564.13;;;10.30;69.26
76940;BME280;65885;55.848;35.916;2023-09-30T05:36:58;99559.25;;;10.42;68.95
76940;BME280;65885;55.848;35.916;2023-09-30T05:39:26;99547.50;;;10.52;68.61
76940;BME280;65885;55.848;35.916;2023-09-30T05:41:54;99554.78;;;10.68;68.84
76940;BME280;65885;55.848;35.916;2023-09-30T05:44:21;99546.44;;;10.78;68.77
76940;BME280;65885;55.848;35.916;2023-09-30T05:46:49;99544.97;;;10.93;69.22
76940;BME280;65885;55.848;35.916;2023-09-30T05:49:16;99546.19;;;11.06;68.70
76940;BME280;65885;55.848;35.916;2023-09-30T05:51:46;99543.84;;;11.21;68.62
76940;BME280;65885;55.848;35.916;2023-09-30T05:54:14;99542.31;;;11.35;68.60
76940;BME280;65885;55.848;35.916;2023-09-30T05:56:41;99546.91;;;11.51;68.16
76940;BME280;65885;55.848;35.916;2023-09-30T05:59:09;99547.09;;;11.66;68.50
76940;BME280;65885;55.848;35.916;2023-09-30T06:01:39;99534.22;;;11.81;68.58
76940;BME280;65885;55.848;35.916;2023-09-30T06:04:07;99537.00;;;11.97;68.88
76940;BME280;65885;55.848;35.916;2023-09-30T06:06:35;99530.28;;;12.10;69.15
76940;BME280;65885;55.848;35.916;2023-09-30T06:09:04;99526.97;;;12.23;69.16
76940;BME280;65885;55.848;35.916;2023-09-30T06:11:33;99531.59;;;12.37;69.13
76940;BME280;65885;55.848;35.916;2023-09-30T06:14:02;99520.50;;;12.49;69.88
76940;BME280;65885;55.848;35.916;2023-09-30T06:16:32;99526.03;;;12.62;69.44
76940;BME280;65885;55.848;35.916;2023-09-30T06:19:00;99523.72;;;12.73;69.44
76940;BME280;65885;55.848;35.916;2023-09-30T06:21:28;99523.13;;;12.86;69.03
76940;BME280;65885;55.848;35.916;2023-09-30T06:23:57;99518.16;;;12.97;69.14
76940;BME280;65885;55.848;35.916;2023-09-30T06:26:25;99515.88;;;13.08;69.60
76940;BME280;65885;55.848;35.916;2023-09-30T06:28:54;99511.81;;;13.18;69.93
76940;BME280;65885;55.848;35.916;2023-09-30T06:31:22;99508.75;;;13.27;69.17
76940;BME280;65885;55.848;35.916;2023-09-30T06:33:50;99507.34;;;13.38;69.60
76940;BME280;65885;55.848;35.916;2023-09-30T06:36:17;99506.03;;;13.46;69.61
76940;BME280;65885;55.848;35.916;2023-09-30T06:38:46;99513.44;;;13.55;68.99
76940;BME280;65885;55.848;35.916;2023-09-30T06:41:16;99517.28;;;13.66;68.96
76940;BME280;65885;55.848;35.916;2023-09-30T06:43:45;99501.84;;;13.75;68.58
76940;BME280;65885;55.848;35.916;2023-09-30T06:46:14;99498.63;;;13.86;68.52
76940;BME280;65885;55.848;35.916;2023-09-30T06:48:42;99498.03;;;13.97;68.44
76940;BME280;65885;55.848;35.916;2023-09-30T06:51:13;99497.47;;;14.07;68.97
76940;BME280;65885;55.848;35.916;2023-09-30T06:53:41;99501.19;;;14.19;68.77
76940;BME280;65885;55.848;35.916;2023-09-30T06:56:09;99505.81;;;14.31;69.03
76940;BME280;65885;55.848;35.916;2023-09-30T06:58:36;99499.91;;;14.42;68.94
76940;BME280;65885;55.848;35.916;2023-09-30T07:01:05;99497.47;;;14.55;68.94
76940;BME280;65885;55.848;35.916;2023-09-30T07:03:33;99498.56;;;14.66;68.75
76940;BME280;65885;55.848;35.916;2023-09-30T07:06:01;99498.69;;;14.79;68.78
76940;BME280;65885;55.848;35.916;2023-09-30T07:08:28;99497.91;;;14.93;68.89
76940;BME280;65885;55.848;35.916;2023-09-30T07:10:57;99497.09;;;15.07;68.93
76940;BME280;65885;55.848;35.916;2023-09-30T07:13:26;99496.38;;;15.19;69.20
76940;BME280;65885;55.848;35.916;2023-09-30T07:15:53;99490.25;;;15.33;69.42
76940;BME280;65885;55.848;35.916;2023-09-30T07:18:22;99491.97;;;15.48;69.37
76940;BME280;65885;55.848;35.916;2023-09-30T07:20:50;99488.41;;;15.63;69.38
76940;BME280;65885;55.848;35.916;2023-09-30T07:23:19;99488.31;;;15.79;69.40
76940;BME280;65885;55.848;35.916;2023-09-30T07:25:47;99489.06;;;15.95;69.33
76940;BME280;65885;55.848;35.916;2023-09-30T07:28:14;99481.09;;;16.09;69.46
76940;BME280;65885;55.848;35.916;2023-09-30T07:30:42;99481.84;;;16.26;69.08
76940;BME280;65885;55.848;35.916;2023-09-30T07:33:09;99475.44;;;16.43;68.92
76940;BME280;65885;55.848;35.916;2023-09-30T07:35:38;99478.69;;;16.60;68.69
76940;BME280;65885;55.848;35.916;2023-09-30T07:38:05;99476.56;;;16.80;68.64
76940;BME280;65885;55.848;35.916;2023-09-30T07:40:33;99469.19;;;16.98;68.52
76940;BME280;65885;55.848;35.916;2023-09-30T07:43:00;99472.28;;;17.17;67.94
76940;BME280;65885;55.848;35.916;2023-09-30T07:45:28;99477.28;;;17.34;67.42
76940;BME280;65885;55.848;35.916;2023-09-30T07:47:55;99468.25;;;17.50;67.04
76940;BME280;65885;55.848;35.916;2023-09-30T07:50:24;99470.69;;;17.65;66.65
76940;BME280;65885;55.848;35.916;2023-09-30T07:52:53;99465.19;;;17.81;66.14
76940;BME280;65885;55.848;35.916;2023-09-30T07:55:20;99460.59;;;17.96;65.86
76940;BME280;65885;55.848;35.916;2023-09-30T07:57:48;99458.53;;;18.12;65.50
76940;BME280;65885;55.848;35.916;2023-09-30T08:00:15;99446.78;;;18.27;64.91
76940;BME280;65885;55.848;35.916;2023-09-30T08:02:44;99449.16;;;18.43;64.64
76940;BME280;65885;55.848;35.916;2023-09-30T08:05:11;99452.50;;;18.58;64.45
76940;BME280;65885;55.848;35.916;2023-09-30T08:07:39;99457.53;;;18.74;64.13
76940;BME280;65885;55.848;35.916;2023-09-30T08:10:09;99455.34;;;18.92;63.57
76940;BME280;65885;55.848;35.916;2023-09-30T08:12:39;99463.00;;;19.07;62.89
76940;BME280;65885;55.848;35.916;2023-09-30T08:15:08;99453.72;;;19.24;62.08
76940;BME280;65885;55.848;35.916;2023-09-30T08:17:37;99454.09;;;19.42;61.82
76940;BME280;65885;55.848;35.916;2023-09-30T08:20:06;99451.84;;;19.60;61.52
76940;BME280;65885;55.848;35.916;2023-09-30T08:22:34;99438.91;;;19.78;61.44
76940;BME280;65885;55.848;35.916;2023-09-30T08:25:02;99443.47;;;19.98;61.32
76940;BME280;65885;55.848;35.916;2023-09-30T08:27:31;99440.38;;;20.25;61.09
76940;BME280;65885;55.848;35.916;2023-09-30T08:29:59;99431.84;;;20.54;60.66
76940;BME280;65885;55.848;35.916;2023-09-30T08:32:33;99432.56;;;20.88;59.33
76940;BME280;65885;55.848;35.916;2023-09-30T08:35:01;99437.56;;;21.23;58.36
76940;BME280;65885;55.848;35.916;2023-09-30T08:37:29;99431.31;;;21.54;57.83
76940;BME280;65885;55.848;35.916;2023-09-30T08:39:57;99436.22;;;21.89;56.92
76940;BME280;65885;55.848;35.916;2023-09-30T08:42:26;99430.44;;;22.25;55.35
76940;BME280;65885;55.848;35.916;2023-09-30T08:44:59;99429.19;;;22.58;53.99
76940;BME280;65885;55.848;35.916;2023-09-30T08:47:27;99425.56;;;22.88;53.21
76940;BME280;65885;55.848;35.916;2023-09-30T08:49:55;99422.00;;;23.16;52.27
76940;BME280;65885;55.848;35.916;2023-09-30T08:52:29;99424.44;;;23.47;50.76
76940;BME280;65885;55.848;35.916;2023-09-30T08:54:56;99423.81;;;23.72;50.58
76940;BME280;65885;55.848;35.916;2023-09-30T08:57:24;99422.28;;;23.97;49.97
76940;BME280;65885;55.848;35.916;2023-09-30T08:59:53;99416.34;;;24.21;49.10
76940;BME280;65885;55.848;35.916;2023-09-30T09:02:22;99421.00;;;24.47;48.30
76940;BME280;65885;55.848;35.916;2023-09-30T09:04:49;99417.56;;;24.72;48.13
76940;BME280;65885;55.848;35.916;2023-09-30T09:07:17;99411.72;;;24.95;47.83
76940;BME280;65885;55.848;35.916;2023-09-30T09:10:02;99411.75;;;25.21;46.88
76940;BME280;65885;55.848;35.916;2023-09-30T09:12:30;99405.84;;;25.43;46.36
76940;BME280;65885;55.848;35.916;2023-09-30T09:14:58;99414.19;;;25.66;45.42
76940;BME280;65885;55.848;35.916;2023-09-30T09:17:39;99415.16;;;25.91;44.50
76940;BME280;65885;55.848;35.916;2023-09-30T09:20:07;99404.81;;;26.12;44.13
76940;BME280;65885;55.848;35.916;2023-09-30T09:22:40;99403.34;;;26.34;44.37
76940;BME280;65885;55.848;35.916;2023-09-30T09:25:09;99399.03;;;26.58;43.66
76940;BME280;65885;55.848;35.916;2023-09-30T09:27:37;99392.97;;;26.80;43.44
76940;BME280;65885;55.848;35.916;2023-09-30T09:30:15;99400.06;;;27.05;42.28
76940;BME280;65885;55.848;35.916;2023-09-30T09:33:04;99394.81;;;27.28;41.57
76940;BME280;65885;55.848;35.916;2023-09-30T09:35:34;99387.34;;;27.47;40.41
76940;BME280;65885;55.848;35.916;2023-09-30T09:38:02;99387.47;;;27.61;38.96
76940;BME280;65885;55.848;35.916;2023-09-30T09:40:32;99399.59;;;27.74;39.52
76940;BME280;65885;55.848;35.916;2023-09-30T09:43:00;99384.88;;;27.84;39.34
76940;BME280;65885;55.848;35.916;2023-09-30T09:45:30;99384.97;;;27.99;38.74
76940;BME280;65885;55.848;35.916;2023-09-30T09:48:01;99385.38;;;28.11;37.89
76940;BME280;65885;55.848;35.916;2023-09-30T09:50:30;99379.78;;;28.20;37.51
76940;BME280;65885;55.848;35.916;2023-09-30T09:52:59;99379.09;;;28.27;36.52
76940;BME280;65885;55.848;35.916;2023-09-30T09:55:27;99380.75;;;28.28;36.26
76940;BME280;65885;55.848;35.916;2023-09-30T09:57:54;99379.09;;;28.27;35.83
76940;BME280;65885;55.848;35.916;2023-09-30T10:00:24;99369.47;;;28.24;35.39
76940;BME280;65885;55.848;35.916;2023-09-30T10:02:52;99371.31;;;28.24;34.92
76940;BME280;65885;55.848;35.916;2023-09-30T10:05:21;99366.00;;;28.15;34.42
76940;BME280;65885;55.848;35.916;2023-09-30T10:07:51;99372.28;;;28.08;34.45
76940;BME280;65885;55.848;35.916;2023-09-30T10:10:20;99366.94;;;28.00;34.63
76940;BME280;65885;55.848;35.916;2023-09-30T10:12:48;99360.38;;;27.94;34.48
76940;BME280;65885;55.848;35.916;2023-09-30T10:15:42;99370.75;;;27.82;35.22
76940;BME280;65885;55.848;35.916;2023-09-30T10:18:10;99367.06;;;27.75;35.41
76940;BME280;65885;55.848;35.916;2023-09-30T10:20:41;99365.38;;;27.74;35.76
76940;BME280;65885;55.848;35.916;2023-09-30T10:23:26;99362.78;;;27.81;36.78
76940;BME280;65885;55.848;35.916;2023-09-30T10:26:14;99363.06;;;27.94;36.73
76940;BME280;65885;55.848;35.916;2023-09-30T10:28:44;99363.22;;;28.01;35.34
76940;BME280;65885;55.848;35.916;2023-09-30T10:31:14;99359.84;;;27.99;34.67
76940;BME280;65885;55.848;35.916;2023-09-30T10:34:20;99353.97;;;27.95;35.41
76940;BME280;65885;55.848;35.916;2023-09-30T10:36:49;99351.94;;;27.97;35.28
76940;BME280;65885;55.848;35.916;2023-09-30T10:39:53;99341.44;;;28.02;35.57
76940;BME280;65885;55.848;35.916;2023-09-30T10:45:44;99344.75;;;27.89;34.40
76940;BME280;65885;55.848;35.916;2023-09-30T10:48:36;99339.41;;;27.73;35.12
76940;BME280;65885;55.848;35.916;2023-09-30T10:51:12;99343.69;;;27.59;35.73
76940;BME280;65885;55.848;35.916;2023-09-30T10:53:43;99337.78;;;27.56;35.81
76940;BME280;65885;55.848;35.916;2023-09-30T10:56:12;99335.28;;;27.54;35.92
76940;BME280;65885;55.848;35.916;2023-09-30T10:58:43;99335.28;;;27.54;35.84
76940;BME280;65885;55.848;35.916;2023-09-30T11:01:11;99334.75;;;27.59;35.76
76940;BME280;65885;55.848;35.916;2023-09-30T11:03:39;99335.06;;;27.64;36.10
76940;BME280;65885;55.848;35.916;2023-09-30T11:06:07;99326.97;;;27.72;36.10
76940;BME280;65885;55.848;35.916;2023-09-30T11:08:35;99325.06;;;27.81;35.98
76940;BME280;65885;55.848;35.916;2023-09-30T11:11:05;99318.25;;;27.93;36.22
76940;BME280;65885;55.848;35.916;2023-09-30T11:13:33;99317.50;;;28.07;36.02
76940;BME280;65885;55.848;35.916;2023-09-30T11:16:02;99315.03;;;28.20;34.97
76940;BME280;65885;55.848;35.916;2023-09-30T11:18:31;99317.34;;;28.32;34.95
76940;BME280;65885;55.848;35.916;2023-09-30T11:21:06;99310.00;;;28.40;34.81
76940;BME280;65885;55.848;35.916;2023-09-30T11:23:35;99304.72;;;28.47;34.52
76940;BME280;65885;55.848;35.916;2023-09-30T11:26:02;99313.66;;;28.47;33.79
76940;BME280;65885;55.848;35.916;2023-09-30T11:28:39;99305.19;;;28.36;33.54
76940;BME280;65885;55.848;35.916;2023-09-30T11:31:11;99297.84;;;28.22;33.83
76940;BME280;65885;55.848;35.916;2023-09-30T11:33:53;99292.50;;;28.13;34.63
76940;BME280;65885;55.848;35.916;2023-09-30T11:36:23;99298.25;;;28.10;34.92
76940;BME280;65885;55.848;35.916;2023-09-30T11:38:51;99288.13;;;28.12;34.96
76940;BME280;65885;55.848;35.916;2023-09-30T11:41:20;99291.78;;;28.19;35.00
76940;BME280;65885;55.848;35.916;2023-09-30T11:44:03;99302.31;;;28.29;34.25
76940;BME280;65885;55.848;35.916;2023-09-30T11:46:48;99296.91;;;28.37;34.26
76940;BME280;65885;55.848;35.916;2023-09-30T11:49:26;99289.94;;;28.43;33.98
76940;BME280;65885;55.848;35.916;2023-09-30T11:51:54;99295.59;;;28.48;33.72
76940;BME280;65885;55.848;35.916;2023-09-30T11:54:21;99293.22;;;28.53;33.25
76940;BME280;65885;55.848;35.916;2023-09-30T11:56:49;99300.09;;;28.56;33.14
76940;BME280;65885;55.848;35.916;2023-09-30T11:59:19;99281.88;;;28.58;33.06
76940;BME280;65885;55.848;35.916;2023-09-30T12:01:48;99289.31;;;28.56;32.57
76940;BME280;65885;55.848;35.916;2023-09-30T12:04:17;99283.16;;;28.47;31.93
76940;BME280;65885;55.848;35.916;2023-09-30T12:06:45;99280.53;;;28.39;31.96
76940;BME280;65885;55.848;35.916;2023-09-30T12:09:14;99278.22;;;28.28;32.12
76940;BME280;65885;55.848;35.916;2023-09-30T12:11:43;99278.38;;;28.11;32.11
76940;BME280;65885;55.848;35.916;2023-09-30T12:14:11;99284.53;;;27.97;32.70
76940;BME280;65885;55.848;35.916;2023-09-30T12:16:41;99276.19;;;27.84;33.34
76940;BME280;65885;55.848;35.916;2023-09-30T12:19:10;99271.69;;;27.76;33.88
76940;BME280;65885;55.848;35.916;2023-09-30T12:21:39;99276.94;;;27.70;33.53
76940;BME280;65885;55.848;35.916;2023-09-30T12:24:07;99278.63;;;27.62;33.54
76940;BME280;65885;55.848;35.916;2023-09-30T12:26:35;99274.66;;;27.50;33.36
76940;BME280;65885;55.848;35.916;2023-09-30T12:29:04;99273.72;;;27.35;33.15
76940;BME280;65885;55.848;35.916;2023-09-30T12:31:31;99276.19;;;27.14;33.06
76940;BME280;65885;55.848;35.916;2023-09-30T12:34:01;99273.00;;;26.94;33.23
76940;BME280;65885;55.848;35.916;2023-09-30T12:36:28;99266.66;;;26.70;33.69
76940;BME280;65885;55.848;35.916;2023-09-30T12:38:56;99267.84;;;26.51;34.51
76940;BME280;65885;55.848;35.916;2023-09-30T12:41:24;99262.84;;;26.40;35.43
76940;BME280;65885;55.848;35.916;2023-09-30T12:43:51;99256.28;;;26.43;35.82
76940;BME280;65885;55.848;35.916;2023-09-30T12:46:19;99252.91;;;26.49;36.00
76940;BME280;65885;55.848;35.916;2023-09-30T12:48:46;99248.88;;;26.61;35.79
76940;BME280;65885;55.848;35.916;2023-09-30T12:51:16;99254.72;;;26.73;35.51
76940;BME280;65885;55.848;35.916;2023-09-30T12:53:44;99245.59;;;26.82;35.13
76940;BME280;65885;55.848;35.916;2023-09-30T12:56:11;99246.59;;;26.89;35.27
76940;BME280;65885;55.848;35.916;2023-09-30T12:58:39;99240.34;;;26.97;35.33
76940;BME280;65885;55.848;35.916;2023-09-30T13:01:07;99240.00;;;27.00;35.08
76940;BME280;65885;55.848;35.916;2023-09-30T13:03:34;99242.53;;;27.01;35.24
76940;BME280;65885;55.848;35.916;2023-09-30T13:06:02;99244.56;;;26.99;34.92
76940;BME280;65885;55.848;35.916;2023-09-30T13:08:31;99249.78;;;26.93;34.78
76940;BME280;65885;55.848;35.916;2023-09-30T13:11:00;99234.16;;;26.80;35.24
76940;BME280;65885;55.848;35.916;2023-09-30T13:13:28;99238.91;;;26.70;35.57
76940;BME280;65885;55.848;35.916;2023-09-30T13:15:56;99232.88;;;26.60;35.74
76940;BME280;65885;55.848;35.916;2023-09-30T13:18:24;99232.03;;;26.51;35.92
76940;BME280;65885;55.848;35.916;2023-09-30T13:20:51;99231.88;;;26.44;35.96
76940;BME280;65885;55.848;35.916;2023-09-30T13:23:19;99228.50;;;26.34;36.11
76940;BME280;65885;55.848;35.916;2023-09-30T13:25:48;99232.22;;;26.25;36.18